N388LD RJTT-KSAV
Flight info
| Callsign | N388LD |
|---|---|
| Flight time | N/A |
| Altitude | 41000 |
| Route | INUBO Y808 NOLAX Y812 ADNAP OTR5 KALNA 44N160E 48N170E 51N180E 52N170W 53N160W 54N150W 54N140W DCT METPA DCT PRYCE DCT WIGHT DCT EDGES DCT GAPAR DCT GTF DCT JUGAP DCT OLIIV DCT LNCER DCT RAP DCT LMN DCT IRK DCT STL DCT PXV DCT FAPER DCT TAZZA DCT IRQ DCT FIBRO DCT FLYNT DCT PLZZZ |
| Aircraft | GLF6/M-SBDE2E3FGHIJ4J5M1RWXY/LB1D1 |
Departure
| Time | N/A |
|---|---|
| Airport | Tokyo Haneda International Airport (RJTT) |
Arrival
| Time | 2026-04-28 22:57 |
|---|---|
| Airport | Savannah Hilton Head International Airport (KSAV) |
| Time | Latitude | Longitude | Altitude | Speed | Heading |
|---|---|---|---|---|---|
| 2026-04-28 21:35 | 39.21782 | -92.23991 | 44983 ft | 583 kts | 108° |
| 2026-04-28 21:35 | 39.20798 | -92.18937 | 44973 ft | 584 kts | 108° |
| 2026-04-28 21:36 | 39.18825 | -92.08857 | 44969 ft | 585 kts | 108° |
| 2026-04-28 21:36 | 39.16829 | -91.98705 | 44986 ft | 586 kts | 109° |
| 2026-04-28 21:37 | 39.14821 | -91.88545 | 44952 ft | 587 kts | 108° |
| 2026-04-28 21:37 | 39.12815 | -91.78445 | 45011 ft | 587 kts | 108° |
| 2026-04-28 21:38 | 39.10780 | -91.68253 | 44991 ft | 588 kts | 108° |
| 2026-04-28 21:38 | 39.08745 | -91.58099 | 45012 ft | 589 kts | 109° |
| 2026-04-28 21:39 | 39.06690 | -91.47907 | 45001 ft | 591 kts | 108° |
| 2026-04-28 21:39 | 39.04626 | -91.37717 | 44989 ft | 591 kts | 108° |
| 2026-04-28 21:40 | 39.02557 | -91.27544 | 44969 ft | 591 kts | 109° |
| 2026-04-28 21:40 | 39.00475 | -91.17378 | 44976 ft | 592 kts | 109° |
| 2026-04-28 21:41 | 38.98369 | -91.07126 | 44988 ft | 593 kts | 109° |
| 2026-04-28 21:41 | 38.96264 | -90.96936 | 44973 ft | 594 kts | 108° |
| 2026-04-28 21:42 | 38.94147 | -90.86730 | 44963 ft | 595 kts | 108° |
| 2026-04-28 21:42 | 38.92011 | -90.76481 | 44973 ft | 596 kts | 108° |
| 2026-04-28 21:43 | 38.89881 | -90.66314 | 44987 ft | 596 kts | 108° |
| 2026-04-28 21:43 | 38.87719 | -90.56051 | 44995 ft | 596 kts | 109° |
| 2026-04-28 21:44 | 38.85264 | -90.46024 | 45004 ft | 591 kts | 116° |
| 2026-04-28 21:44 | 38.82137 | -90.36251 | 44999 ft | 592 kts | 117° |
| 2026-04-28 21:45 | 38.78968 | -90.26602 | 44987 ft | 591 kts | 118° |
| 2026-04-28 21:45 | 38.75777 | -90.16933 | 44976 ft | 593 kts | 117° |
| 2026-04-28 21:46 | 38.72561 | -90.07216 | 44979 ft | 593 kts | 118° |
| 2026-04-28 21:46 | 38.69342 | -89.97523 | 44971 ft | 595 kts | 118° |
| 2026-04-28 21:47 | 38.66097 | -89.87794 | 44980 ft | 596 kts | 117° |
| 2026-04-28 21:47 | 38.62848 | -89.78079 | 44987 ft | 596 kts | 117° |
| 2026-04-28 21:48 | 38.59600 | -89.68406 | 44979 ft | 596 kts | 117° |
| 2026-04-28 21:48 | 38.56347 | -89.58745 | 44979 ft | 594 kts | 117° |
| 2026-04-28 21:49 | 38.53082 | -89.49082 | 44977 ft | 595 kts | 117° |
| 2026-04-28 21:49 | 38.49793 | -89.39386 | 44971 ft | 596 kts | 117° |
| 2026-04-28 21:50 | 38.46515 | -89.29740 | 44952 ft | 596 kts | 117° |
| 2026-04-28 21:50 | 38.43214 | -89.20070 | 44967 ft | 596 kts | 117° |
| 2026-04-28 21:51 | 38.39930 | -89.10476 | 44978 ft | 596 kts | 117° |
| 2026-04-28 21:51 | 38.36610 | -89.00809 | 44981 ft | 595 kts | 117° |
| 2026-04-28 21:52 | 38.33300 | -88.91215 | 44983 ft | 595 kts | 117° |
| 2026-04-28 21:52 | 38.29977 | -88.81599 | 44989 ft | 596 kts | 117° |
| 2026-04-28 21:53 | 38.26653 | -88.72016 | 44987 ft | 597 kts | 116° |
| 2026-04-28 21:53 | 38.23304 | -88.62396 | 44987 ft | 595 kts | 117° |
| 2026-04-28 21:54 | 38.19953 | -88.52799 | 44984 ft | 595 kts | 116° |
| 2026-04-28 21:54 | 38.16588 | -88.43196 | 44994 ft | 596 kts | 116° |
| 2026-04-28 21:55 | 38.13214 | -88.33594 | 44981 ft | 596 kts | 117° |
| 2026-04-28 21:55 | 38.09858 | -88.24080 | 44976 ft | 596 kts | 117° |
| 2026-04-28 21:56 | 38.06475 | -88.14518 | 44972 ft | 595 kts | 117° |
| 2026-04-28 21:56 | 38.03074 | -88.04934 | 44980 ft | 594 kts | 116° |
| 2026-04-28 21:57 | 37.99713 | -87.95485 | 44980 ft | 593 kts | 117° |
| 2026-04-28 21:57 | 37.96323 | -87.85998 | 44982 ft | 593 kts | 117° |
| 2026-04-28 21:58 | 37.92822 | -87.76570 | 44967 ft | 588 kts | 125° |
| 2026-04-28 21:58 | 37.88114 | -87.68233 | 44989 ft | 584 kts | 130° |
| 2026-04-28 21:59 | 37.83275 | -87.60010 | 44997 ft | 583 kts | 131° |
| 2026-04-28 22:00 | 37.76014 | -87.47726 | 44993 ft | 584 kts | 131° |
| 2026-04-28 22:00 | 37.71174 | -87.39562 | 44996 ft | 584 kts | 130° |
| 2026-04-28 22:01 | 37.66304 | -87.31362 | 44967 ft | 583 kts | 131° |
| 2026-04-28 22:01 | 37.61459 | -87.23231 | 44981 ft | 581 kts | 131° |
| 2026-04-28 22:02 | 37.56602 | -87.15099 | 44988 ft | 581 kts | 131° |
| 2026-04-28 22:02 | 37.51759 | -87.07005 | 44984 ft | 581 kts | 131° |
| 2026-04-28 22:03 | 37.46892 | -86.98902 | 44984 ft | 580 kts | 131° |
| 2026-04-28 22:03 | 37.42037 | -86.90829 | 44987 ft | 580 kts | 131° |
| 2026-04-28 22:04 | 37.37201 | -86.82809 | 44986 ft | 579 kts | 131° |
| 2026-04-28 22:04 | 37.32125 | -86.74956 | 44989 ft | 576 kts | 136° |
| 2026-04-28 22:05 | 37.26866 | -86.67419 | 44981 ft | 578 kts | 135° |
| 2026-04-28 22:05 | 37.21606 | -86.59858 | 44991 ft | 577 kts | 135° |
| 2026-04-28 22:06 | 37.16319 | -86.52268 | 44993 ft | 576 kts | 135° |
| 2026-04-28 22:06 | 37.11064 | -86.44750 | 45001 ft | 578 kts | 135° |
| 2026-04-28 22:07 | 37.05767 | -86.37186 | 44999 ft | 578 kts | 135° |
| 2026-04-28 22:07 | 37.00507 | -86.29689 | 44996 ft | 577 kts | 136° |
| 2026-04-28 22:08 | 36.95197 | -86.22141 | 44991 ft | 577 kts | 135° |
| 2026-04-28 22:08 | 36.89933 | -86.14675 | 45011 ft | 577 kts | 135° |
| 2026-04-28 22:09 | 36.84638 | -86.07180 | 45003 ft | 575 kts | 136° |
| 2026-04-28 22:09 | 36.79367 | -85.99739 | 45035 ft | 574 kts | 135° |
| 2026-04-28 22:10 | 36.74062 | -85.92265 | 45030 ft | 574 kts | 136° |
| 2026-04-28 22:10 | 36.68803 | -85.84875 | 45038 ft | 574 kts | 136° |
| 2026-04-28 22:11 | 36.63524 | -85.77470 | 45037 ft | 572 kts | 136° |
| 2026-04-28 22:11 | 36.58253 | -85.70094 | 45031 ft | 572 kts | 136° |
| 2026-04-28 22:12 | 36.52959 | -85.62705 | 45043 ft | 571 kts | 136° |
| 2026-04-28 22:12 | 36.47722 | -85.55410 | 45061 ft | 570 kts | 136° |
| 2026-04-28 22:13 | 36.42435 | -85.48058 | 45063 ft | 570 kts | 136° |
| 2026-04-28 22:13 | 36.37180 | -85.40771 | 45066 ft | 570 kts | 136° |
| 2026-04-28 22:14 | 36.31885 | -85.33445 | 45065 ft | 568 kts | 136° |
| 2026-04-28 22:14 | 36.26648 | -85.26210 | 45056 ft | 568 kts | 137° |
| 2026-04-28 22:15 | 36.21402 | -85.18984 | 45065 ft | 566 kts | 137° |
| 2026-04-28 22:15 | 36.16132 | -85.11739 | 45074 ft | 566 kts | 137° |
| 2026-04-28 22:16 | 36.10870 | -85.04518 | 45092 ft | 566 kts | 137° |
| 2026-04-28 22:16 | 36.05623 | -84.97340 | 45097 ft | 566 kts | 137° |
| 2026-04-28 22:17 | 36.00334 | -84.90115 | 45114 ft | 569 kts | 137° |
| 2026-04-28 22:17 | 35.95065 | -84.82931 | 45090 ft | 568 kts | 137° |
| 2026-04-28 22:18 | 35.89769 | -84.75729 | 45097 ft | 568 kts | 137° |
| 2026-04-28 22:18 | 35.84494 | -84.68569 | 45096 ft | 567 kts | 137° |
| 2026-04-28 22:19 | 35.79086 | -84.61522 | 45093 ft | 564 kts | 141° |
| 2026-04-28 22:19 | 35.73524 | -84.54757 | 45082 ft | 566 kts | 140° |
| 2026-04-28 22:20 | 35.67961 | -84.47978 | 45089 ft | 565 kts | 140° |
| 2026-04-28 22:20 | 35.62378 | -84.41190 | 45096 ft | 565 kts | 140° |
| 2026-04-28 22:21 | 35.56790 | -84.34408 | 45093 ft | 564 kts | 140° |
| 2026-04-28 22:21 | 35.51234 | -84.27680 | 45025 ft | 563 kts | 141° |
| 2026-04-28 22:22 | 35.45689 | -84.20976 | 45037 ft | 563 kts | 141° |
| 2026-04-28 22:22 | 35.40084 | -84.14218 | 45102 ft | 565 kts | 141° |
| 2026-04-28 22:23 | 35.34513 | -84.07511 | 45108 ft | 567 kts | 141° |
| 2026-04-28 22:23 | 35.28886 | -84.00750 | 45107 ft | 567 kts | 140° |
| 2026-04-28 22:24 | 35.23247 | -83.93993 | 45140 ft | 570 kts | 141° |
| 2026-04-28 22:24 | 35.17603 | -83.87241 | 45163 ft | 569 kts | 141° |
| 2026-04-28 22:25 | 35.11940 | -83.80481 | 45136 ft | 570 kts | 140° |
| 2026-04-28 22:25 | 35.06286 | -83.73745 | 45122 ft | 571 kts | 140° |
| 2026-04-28 22:26 | 35.00613 | -83.67001 | 45126 ft | 571 kts | 140° |
| 2026-04-28 22:26 | 34.94933 | -83.60261 | 45153 ft | 572 kts | 140° |
| 2026-04-28 22:27 | 34.89216 | -83.53489 | 45155 ft | 572 kts | 140° |
| 2026-04-28 22:27 | 34.83527 | -83.46769 | 45140 ft | 572 kts | 140° |
| 2026-04-28 22:28 | 34.77804 | -83.40021 | 45128 ft | 573 kts | 140° |
| 2026-04-28 22:28 | 34.72110 | -83.33321 | 45120 ft | 573 kts | 140° |
| 2026-04-28 22:29 | 34.66402 | -83.26614 | 45100 ft | 572 kts | 140° |
| 2026-04-28 22:29 | 34.60691 | -83.19920 | 45116 ft | 571 kts | 140° |
| 2026-04-28 22:30 | 34.55010 | -83.13276 | 45110 ft | 572 kts | 140° |
| 2026-04-28 22:30 | 34.49264 | -83.06568 | 45109 ft | 572 kts | 140° |
| 2026-04-28 22:31 | 34.43570 | -82.99934 | 45104 ft | 572 kts | 140° |
| 2026-04-28 22:31 | 34.37813 | -82.93241 | 45106 ft | 573 kts | 140° |
| 2026-04-28 22:32 | 34.32064 | -82.86570 | 45118 ft | 575 kts | 140° |
| 2026-04-28 22:32 | 34.29631 | -82.83749 | 44648 ft | 581 kts | 140° |
| 2026-04-28 22:32 | 34.26776 | -82.80442 | 44003 ft | 570 kts | 140° |
| 2026-04-28 22:32 | 34.23912 | -82.77130 | 43367 ft | 563 kts | 140° |
| 2026-04-28 22:33 | 34.21108 | -82.73891 | 42763 ft | 557 kts | 140° |
| 2026-04-28 22:33 | 34.18342 | -82.70698 | 42063 ft | 551 kts | 140° |
| 2026-04-28 22:33 | 34.15608 | -82.67545 | 41427 ft | 544 kts | 140° |
| 2026-04-28 22:33 | 34.12901 | -82.64428 | 40829 ft | 540 kts | 140° |
| 2026-04-28 22:34 | 34.10184 | -82.61300 | 40237 ft | 540 kts | 140° |
| 2026-04-28 22:34 | 34.07481 | -82.58191 | 39649 ft | 539 kts | 140° |
| 2026-04-28 22:34 | 34.04763 | -82.55068 | 39019 ft | 539 kts | 140° |
| 2026-04-28 22:34 | 34.02053 | -82.51959 | 38407 ft | 540 kts | 140° |
| 2026-04-28 22:35 | 33.99327 | -82.48833 | 37578 ft | 545 kts | 140° |
| 2026-04-28 22:35 | 33.96604 | -82.45716 | 36247 ft | 550 kts | 140° |
| 2026-04-28 22:35 | 33.93816 | -82.42523 | 34974 ft | 551 kts | 140° |
| 2026-04-28 22:35 | 33.91077 | -82.39391 | 33730 ft | 551 kts | 140° |
| 2026-04-28 22:36 | 33.88311 | -82.36232 | 32544 ft | 552 kts | 140° |
| 2026-04-28 22:36 | 33.85530 | -82.33058 | 31347 ft | 553 kts | 140° |
| 2026-04-28 22:36 | 33.82742 | -82.29878 | 30147 ft | 551 kts | 139° |
| 2026-04-28 22:36 | 33.79998 | -82.26751 | 28988 ft | 547 kts | 139° |
| 2026-04-28 22:37 | 33.77275 | -82.23650 | 27853 ft | 543 kts | 139° |
| 2026-04-28 22:37 | 33.74540 | -82.20543 | 26713 ft | 538 kts | 139° |
| 2026-04-28 22:37 | 33.71840 | -82.17473 | 25649 ft | 530 kts | 139° |
| 2026-04-28 22:37 | 33.69278 | -82.14418 | 24937 ft | 517 kts | 135° |
| 2026-04-28 22:38 | 33.66868 | -82.11346 | 24349 ft | 502 kts | 135° |
| 2026-04-28 22:38 | 33.64494 | -82.08342 | 23794 ft | 492 kts | 135° |
| 2026-04-28 22:38 | 33.62132 | -82.05362 | 23253 ft | 491 kts | 135° |
| 2026-04-28 22:38 | 33.59776 | -82.02394 | 22715 ft | 488 kts | 135° |
| 2026-04-28 22:39 | 33.57470 | -81.99493 | 22192 ft | 485 kts | 135° |
| 2026-04-28 22:39 | 33.55125 | -81.96546 | 21648 ft | 481 kts | 135° |
| 2026-04-28 22:39 | 33.52835 | -81.93668 | 21125 ft | 476 kts | 135° |
| 2026-04-28 22:39 | 33.50565 | -81.90818 | 20605 ft | 473 kts | 135° |
| 2026-04-28 22:40 | 33.48306 | -81.87984 | 20086 ft | 468 kts | 135° |
| 2026-04-28 22:40 | 33.46081 | -81.85197 | 19574 ft | 465 kts | 134° |
| 2026-04-28 22:40 | 33.43889 | -81.82344 | 19152 ft | 458 kts | 129° |
| 2026-04-28 22:40 | 33.42009 | -81.79263 | 19128 ft | 458 kts | 125° |
| 2026-04-28 22:41 | 33.40169 | -81.76178 | 19123 ft | 460 kts | 125° |
| 2026-04-28 22:41 | 33.38302 | -81.73053 | 19123 ft | 461 kts | 125° |
| 2026-04-28 22:41 | 33.36420 | -81.69913 | 19127 ft | 463 kts | 125° |
| 2026-04-28 22:41 | 33.34551 | -81.66796 | 19130 ft | 462 kts | 124° |
| 2026-04-28 22:42 | 33.32682 | -81.63667 | 19129 ft | 463 kts | 124° |
| 2026-04-28 22:42 | 33.30673 | -81.60693 | 19095 ft | 462 kts | 138° |
| 2026-04-28 22:42 | 33.28009 | -81.58620 | 19076 ft | 458 kts | 153° |
| 2026-04-28 22:42 | 33.25174 | -81.56806 | 19108 ft | 460 kts | 152° |
| 2026-04-28 22:43 | 33.22374 | -81.54949 | 19118 ft | 460 kts | 152° |
| 2026-04-28 22:43 | 33.19590 | -81.53081 | 19123 ft | 459 kts | 151° |
| 2026-04-28 22:43 | 33.16812 | -81.51209 | 18984 ft | 462 kts | 151° |
| 2026-04-28 22:43 | 33.14011 | -81.49321 | 18566 ft | 461 kts | 151° |
| 2026-04-28 22:44 | 33.11691 | -81.47755 | 18163 ft | 455 kts | 151° |
| 2026-04-28 22:44 | 33.08927 | -81.45895 | 17668 ft | 452 kts | 151° |
| 2026-04-28 22:44 | 33.06199 | -81.44057 | 17138 ft | 448 kts | 151° |
| 2026-04-28 22:44 | 33.03493 | -81.42236 | 16654 ft | 443 kts | 150° |
| 2026-04-28 22:45 | 33.00804 | -81.40427 | 16153 ft | 440 kts | 150° |
| 2026-04-28 22:45 | 32.98165 | -81.38654 | 15699 ft | 438 kts | 150° |
| 2026-04-28 22:45 | 32.95507 | -81.36869 | 15212 ft | 434 kts | 150° |
| 2026-04-28 22:45 | 32.92922 | -81.35133 | 14734 ft | 428 kts | 150° |
| 2026-04-28 22:46 | 32.90340 | -81.33403 | 14229 ft | 425 kts | 151° |
| 2026-04-28 22:46 | 32.87761 | -81.31674 | 13715 ft | 421 kts | 151° |
| 2026-04-28 22:46 | 32.85234 | -81.29983 | 13243 ft | 416 kts | 151° |
| 2026-04-28 22:46 | 32.82726 | -81.28303 | 12788 ft | 414 kts | 151° |
| 2026-04-28 22:47 | 32.80216 | -81.26623 | 12314 ft | 412 kts | 152° |
| 2026-04-28 22:47 | 32.77730 | -81.24961 | 11860 ft | 399 kts | 152° |
| 2026-04-28 22:47 | 32.75355 | -81.23373 | 11420 ft | 387 kts | 152° |
| 2026-04-28 22:47 | 32.72967 | -81.22102 | 11034 ft | 368 kts | 170° |
| 2026-04-28 22:48 | 32.70407 | -81.21752 | 10305 ft | 364 kts | 180° |
| 2026-04-28 22:48 | 32.69286 | -81.21693 | 9906 ft | 365 kts | 181° |
| 2026-04-28 22:48 | 32.66821 | -81.21574 | 8996 ft | 333 kts | 181° |
| 2026-04-28 22:48 | 32.64536 | -81.21474 | 8629 ft | 325 kts | 182° |
| 2026-04-28 22:49 | 32.62292 | -81.21379 | 8211 ft | 320 kts | 181° |
| 2026-04-28 22:49 | 32.60083 | -81.21285 | 7845 ft | 314 kts | 181° |
| 2026-04-28 22:49 | 32.57944 | -81.21195 | 7499 ft | 308 kts | 181° |
| 2026-04-28 22:49 | 32.55808 | -81.21105 | 7158 ft | 302 kts | 181° |
| 2026-04-28 22:50 | 32.53740 | -81.21018 | 6826 ft | 297 kts | 181° |
| 2026-04-28 22:50 | 32.51677 | -81.20932 | 6497 ft | 292 kts | 181° |
| 2026-04-28 22:50 | 32.49665 | -81.20847 | 6178 ft | 288 kts | 181° |
| 2026-04-28 22:50 | 32.47677 | -81.20764 | 5862 ft | 285 kts | 181° |
| 2026-04-28 22:51 | 32.45710 | -81.20682 | 5546 ft | 283 kts | 180° |
| 2026-04-28 22:51 | 32.43735 | -81.20598 | 5231 ft | 281 kts | 181° |
| 2026-04-28 22:51 | 32.41782 | -81.20516 | 5110 ft | 280 kts | 180° |
| 2026-04-28 22:51 | 32.39816 | -81.20435 | 4540 ft | 287 kts | 180° |
| 2026-04-28 22:52 | 32.37844 | -81.20351 | 3800 ft | 280 kts | 180° |
| 2026-04-28 22:52 | 32.35895 | -81.20270 | 3433 ft | 277 kts | 180° |
| 2026-04-28 22:52 | 32.33997 | -81.20190 | 3091 ft | 272 kts | 179° |
| 2026-04-28 22:52 | 32.32150 | -81.20154 | 3072 ft | 256 kts | 181° |
| 2026-04-28 22:53 | 32.30416 | -81.20141 | 3021 ft | 238 kts | 181° |
| 2026-04-28 22:53 | 32.28812 | -81.20128 | 2861 ft | 224 kts | 181° |
| 2026-04-28 22:53 | 32.27290 | -81.20117 | 2670 ft | 215 kts | 181° |
| 2026-04-28 22:53 | 32.25831 | -81.20105 | 2444 ft | 201 kts | 181° |
| 2026-04-28 22:54 | 32.24493 | -81.20094 | 2164 ft | 181 kts | 181° |
| 2026-04-28 22:54 | 32.23337 | -81.20086 | 1943 ft | 149 kts | 181° |
| 2026-04-28 22:54 | 32.22392 | -81.20078 | 1741 ft | 130 kts | 180° |
| 2026-04-28 22:54 | 32.21497 | -81.20072 | 1598 ft | 128 kts | 181° |
| 2026-04-28 22:55 | 32.20599 | -81.20067 | 1440 ft | 129 kts | 180° |
| 2026-04-28 22:55 | 32.19700 | -81.20061 | 1271 ft | 128 kts | 180° |
| 2026-04-28 22:55 | 32.18817 | -81.20055 | 1100 ft | 126 kts | 179° |
| 2026-04-28 22:55 | 32.17942 | -81.20049 | 935 ft | 126 kts | 179° |
| 2026-04-28 22:56 | 32.17064 | -81.20042 | 766 ft | 126 kts | 179° |
| 2026-04-28 22:56 | 32.16188 | -81.20036 | 598 ft | 125 kts | 178° |
| 2026-04-28 22:56 | 32.15310 | -81.20029 | 433 ft | 125 kts | 178° |
| 2026-04-28 22:56 | 32.14428 | -81.20023 | 260 ft | 125 kts | 178° |
| 2026-04-28 22:57 | 32.13559 | -81.20019 | 78 ft | 124 kts | 177° |
| 2026-04-28 22:57 | 32.12864 | -81.20009 | 55 ft | 44 kts | 180° |
| 2026-04-28 22:57 | 32.12742 | -81.20021 | 55 ft | 8 kts | 249° |
| 2026-04-28 22:57 | 32.12746 | -81.20116 | 55 ft | 16 kts | 273° |
| 2026-04-28 22:58 | 32.12751 | -81.20287 | 55 ft | 21 kts | 291° |
| 2026-04-28 22:58 | 32.12767 | -81.20312 | 55 ft | 0 kts | 318° |
| 2026-04-28 22:58 | 32.12796 | -81.20331 | 55 ft | 13 kts | 350° |
| 2026-04-28 22:58 | 32.12964 | -81.20332 | 55 ft | 33 kts | 1° |
| 2026-04-28 22:59 | 32.13193 | -81.20328 | 55 ft | 32 kts | 1° |
| 2026-04-28 22:59 | 32.13417 | -81.20327 | 55 ft | 31 kts | 359° |
| 2026-04-28 22:59 | 32.13633 | -81.20328 | 55 ft | 30 kts | 359° |
| 2026-04-28 22:59 | 32.13818 | -81.20332 | 55 ft | 18 kts | 359° |
| 2026-04-28 23:00 | 32.13865 | -81.20422 | 55 ft | 14 kts | 270° |
| 2026-04-28 23:00 | 32.13869 | -81.20545 | 55 ft | 16 kts | 272° |
| 2026-04-28 23:00 | 32.13866 | -81.20687 | 55 ft | 18 kts | 268° |
| 2026-04-28 23:00 | 32.13907 | -81.20779 | 55 ft | 12 kts | 53° |
| 2026-04-28 23:01 | 32.13916 | -81.20764 | 55 ft | 0 kts | 56° |